sensor_id;sensor_type;location;lat;lon;timestamp;temperature;humidity
16178;DHT22;8195;51.220;9.746;2023-04-28T00:04:31;7.90;97.20
16178;DHT22;8195;51.220;9.746;2023-04-28T00:15:02;7.90;97.20
16178;DHT22;8195;51.220;9.746;2023-04-28T00:25:29;8.00;97.20
16178;DHT22;8195;51.220;9.746;2023-04-28T00:35:58;8.00;97.20
16178;DHT22;8195;51.220;9.746;2023-04-28T00:46:34;8.00;97.20
16178;DHT22;8195;51.220;9.746;2023-04-28T00:57:02;8.00;97.20
16178;DHT22;8195;51.220;9.746;2023-04-28T01:07:25;7.90;97.20
16178;DHT22;8195;51.220;9.746;2023-04-28T01:17:47;7.90;97.20
16178;DHT22;8195;51.220;9.746;2023-04-28T01:28:12;7.90;97.20
16178;DHT22;8195;51.220;9.746;2023-04-28T01:38:32;7.90;97.20
16178;DHT22;8195;51.220;9.746;2023-04-28T01:48:54;7.80;97.20
16178;DHT22;8195;51.220;9.746;2023-04-28T01:59:26;7.80;97.20
16178;DHT22;8195;51.220;9.746;2023-04-28T02:09:47;7.70;97.20
16178;DHT22;8195;51.220;9.746;2023-04-28T02:20:17;7.80;97.20
16178;DHT22;8195;51.220;9.746;2023-04-28T02:30:47;7.80;97.20
16178;DHT22;8195;51.220;9.746;2023-04-28T02:41:14;7.80;97.20
16178;DHT22;8195;51.220;9.746;2023-04-28T02:51:35;7.80;97.20
16178;DHT22;8195;51.220;9.746;2023-04-28T03:02:02;7.70;97.20
16178;DHT22;8195;51.220;9.746;2023-04-28T03:12:26;7.70;97.20
16178;DHT22;8195;51.220;9.746;2023-04-28T03:22:53;7.80;97.20
16178;DHT22;8195;51.220;9.746;2023-04-28T03:33:25;7.60;97.20
16178;DHT22;8195;51.220;9.746;2023-04-28T03:43:46;7.60;97.20
16178;DHT22;8195;51.220;9.746;2023-04-28T03:54:07;7.60;97.20
16178;DHT22;8195;51.220;9.746;2023-04-28T04:04:28;7.50;97.20
16178;DHT22;8195;51.220;9.746;2023-04-28T04:14:52;7.50;97.20
16178;DHT22;8195;51.220;9.746;2023-04-28T04:25:13;7.30;97.20
16178;DHT22;8195;51.220;9.746;2023-04-28T04:35:34;7.30;97.20
16178;DHT22;8195;51.220;9.746;2023-04-28T04:45:55;7.20;97.20
16178;DHT22;8195;51.220;9.746;2023-04-28T04:56:16;7.10;97.20
16178;DHT22;8195;51.220;9.746;2023-04-28T05:06:43;7.10;97.20
16178;DHT22;8195;51.220;9.746;2023-04-28T05:17:07;7.00;97.20
16178;DHT22;8195;51.220;9.746;2023-04-28T05:27:28;7.10;97.20
16178;DHT22;8195;51.220;9.746;2023-04-28T05:37:58;7.00;97.20
16178;DHT22;8195;51.220;9.746;2023-04-28T05:48:28;7.10;97.20
16178;DHT22;8195;51.220;9.746;2023-04-28T05:59:07;7.20;97.20
16178;DHT22;8195;51.220;9.746;2023-04-28T06:09:40;7.30;97.20
16178;DHT22;8195;51.220;9.746;2023-04-28T06:30:51;7.40;97.20
16178;DHT22;8195;51.220;9.746;2023-04-28T06:41:18;7.60;97.20
16178;DHT22;8195;51.220;9.746;2023-04-28T06:51:39;7.80;97.20
16178;DHT22;8195;51.220;9.746;2023-04-28T07:02:00;7.90;97.20
16178;DHT22;8195;51.220;9.746;2023-04-28T07:23:44;8.00;97.20
16178;DHT22;8195;51.220;9.746;2023-04-28T07:34:05;8.10;97.20
16178;DHT22;8195;51.220;9.746;2023-04-28T07:44:51;8.20;97.20
16178;DHT22;8195;51.220;9.746;2023-04-28T07:55:36;8.30;97.20
16178;DHT22;8195;51.220;9.746;2023-04-28T08:05:57;8.30;97.20
16178;DHT22;8195;51.220;9.746;2023-04-28T08:16:18;8.30;97.20
16178;DHT22;8195;51.220;9.746;2023-04-28T08:26:39;8.50;97.20
16178;DHT22;8195;51.220;9.746;2023-04-28T08:37:01;8.50;97.20
16178;DHT22;8195;51.220;9.746;2023-04-28T08:47:32;9.10;97.20
16178;DHT22;8195;51.220;9.746;2023-04-28T08:57:59;9.40;97.20
16178;DHT22;8195;51.220;9.746;2023-04-28T09:08:30;9.50;97.20
16178;DHT22;8195;51.220;9.746;2023-04-28T09:18:57;9.40;97.20
16178;DHT22;8195;51.220;9.746;2023-04-28T09:29:30;9.40;97.20
16178;DHT22;8195;51.220;9.746;2023-04-28T09:40:02;9.30;97.20
16178;DHT22;8195;51.220;9.746;2023-04-28T09:50:26;9.40;97.20
16178;DHT22;8195;51.220;9.746;2023-04-28T10:01:02;9.60;97.20
16178;DHT22;8195;51.220;9.746;2023-04-28T10:43:40;10.30;97.20
16178;DHT22;8195;51.220;9.746;2023-04-28T10:54:37;10.20;97.20
16178;DHT22;8195;51.220;9.746;2023-04-28T11:05:17;10.30;97.20
16178;DHT22;8195;51.220;9.746;2023-04-28T11:15:44;10.20;97.20
16178;DHT22;8195;51.220;9.746;2023-04-28T11:26:22;10.40;97.20
16178;DHT22;8195;51.220;9.746;2023-04-28T11:36:43;10.60;97.20
16178;DHT22;8195;51.220;9.746;2023-04-28T11:47:05;10.70;97.20
16178;DHT22;8195;51.220;9.746;2023-04-28T11:57:26;10.90;97.20
16178;DHT22;8195;51.220;9.746;2023-04-28T12:07:47;11.20;97.20
16178;DHT22;8195;51.220;9.746;2023-04-28T12:18:09;11.40;97.20
16178;DHT22;8195;51.220;9.746;2023-04-28T12:38:57;12.00;97.20
16178;DHT22;8195;51.220;9.746;2023-04-28T12:49:27;12.30;97.20
16178;DHT22;8195;51.220;9.746;2023-04-28T12:59:48;12.30;97.20
16178;DHT22;8195;51.220;9.746;2023-04-28T13:10:09;12.50;97.20
16178;DHT22;8195;51.220;9.746;2023-04-28T13:20:30;12.60;97.20
16178;DHT22;8195;51.220;9.746;2023-04-28T13:41:31;12.70;97.20
16178;DHT22;8195;51.220;9.746;2023-04-28T13:52:11;12.60;97.20
16178;DHT22;8195;51.220;9.746;2023-04-28T14:02:39;12.70;97.20
16178;DHT22;8195;51.220;9.746;2023-04-28T14:13:11;12.90;97.20
16178;DHT22;8195;51.220;9.746;2023-04-28T14:23:57;13.10;97.20
16178;DHT22;8195;51.220;9.746;2023-04-28T14:34:18;13.50;97.20
16178;DHT22;8195;51.220;9.746;2023-04-28T14:44:39;13.30;97.20
16178;DHT22;8195;51.220;9.746;2023-04-28T14:55:00;13.40;97.20
16178;DHT22;8195;51.220;9.746;2023-04-28T15:05:46;13.20;97.20
16178;DHT22;8195;51.220;9.746;2023-04-28T15:16:03;13.20;97.20
16178;DHT22;8195;51.220;9.746;2023-04-28T15:37:40;13.30;97.20
16178;DHT22;8195;51.220;9.746;2023-04-28T15:48:01;13.30;97.20
16178;DHT22;8195;51.220;9.746;2023-04-28T15:58:22;13.30;97.20
16178;DHT22;8195;51.220;9.746;2023-04-28T16:08:43;13.30;97.20
16178;DHT22;8195;51.220;9.746;2023-04-28T16:19:04;13.40;97.20
16178;DHT22;8195;51.220;9.746;2023-04-28T16:29:25;13.60;97.20
16178;DHT22;8195;51.220;9.746;2023-04-28T16:39:46;13.70;97.20
16178;DHT22;8195;51.220;9.746;2023-04-28T16:50:11;13.80;97.20
16178;DHT22;8195;51.220;9.746;2023-04-28T17:00:32;13.70;97.20
16178;DHT22;8195;51.220;9.746;2023-04-28T17:10:59;13.70;97.20
16178;DHT22;8195;51.220;9.746;2023-04-28T17:21:21;13.60;97.20
16178;DHT22;8195;51.220;9.746;2023-04-28T17:42:52;13.60;97.20
16178;DHT22;8195;51.220;9.746;2023-04-28T17:53:39;13.50;97.20
16178;DHT22;8195;51.220;9.746;2023-04-28T18:04:05;13.20;97.20
16178;DHT22;8195;51.220;9.746;2023-04-28T18:14:36;13.00;97.20
16178;DHT22;8195;51.220;9.746;2023-04-28T18:25:23;13.00;97.20
16178;DHT22;8195;51.220;9.746;2023-04-28T18:35:44;13.00;97.20
16178;DHT22;8195;51.220;9.746;2023-04-28T18:46:05;12.90;97.20
16178;DHT22;8195;51.220;9.746;2023-04-28T18:56:26;12.80;97.20
16178;DHT22;8195;51.220;9.746;2023-04-28T19:06:47;12.80;97.20
16178;DHT22;8195;51.220;9.746;2023-04-28T19:17:08;12.90;97.20
16178;DHT22;8195;51.220;9.746;2023-04-28T19:27:33;12.90;97.20
16178;DHT22;8195;51.220;9.746;2023-04-28T19:37:54;13.00;97.20
16178;DHT22;8195;51.220;9.746;2023-04-28T19:48:15;12.90;97.20
16178;DHT22;8195;51.220;9.746;2023-04-28T19:58:36;12.90;97.20
16178;DHT22;8195;51.220;9.746;2023-04-28T20:08:57;12.80;97.20
16178;DHT22;8195;51.220;9.746;2023-04-28T20:19:18;12.90;97.20
16178;DHT22;8195;51.220;9.746;2023-04-28T20:29:39;12.90;97.20
16178;DHT22;8195;51.220;9.746;2023-04-28T20:40:04;13.00;97.20
16178;DHT22;8195;51.220;9.746;2023-04-28T20:50:25;13.00;97.20
16178;DHT22;8195;51.220;9.746;2023-04-28T21:01:08;13.00;97.20
16178;DHT22;8195;51.220;9.746;2023-04-28T21:11:57;13.00;97.20
16178;DHT22;8195;51.220;9.746;2023-04-28T21:22:19;12.90;97.20
16178;DHT22;8195;51.220;9.746;2023-04-28T21:32:49;12.80;97.20
16178;DHT22;8195;51.220;9.746;2023-04-28T21:43:10;12.70;97.20
16178;DHT22;8195;51.220;9.746;2023-04-28T21:53:31;12.70;97.20
16178;DHT22;8195;51.220;9.746;2023-04-28T22:03:52;12.60;97.20
16178;DHT22;8195;51.220;9.746;2023-04-28T22:14:37;12.60;97.20
16178;DHT22;8195;51.220;9.746;2023-04-28T22:24:58;12.50;97.20
16178;DHT22;8195;51.220;9.746;2023-04-28T22:35:29;12.50;97.20
16178;DHT22;8195;51.220;9.746;2023-04-28T22:45:50;12.50;97.20
16178;DHT22;8195;51.220;9.746;2023-04-28T22:56:11;12.40;97.20
16178;DHT22;8195;51.220;9.746;2023-04-28T23:06:38;12.30;97.20
16178;DHT22;8195;51.220;9.746;2023-04-28T23:17:05;12.30;97.20
16178;DHT22;8195;51.220;9.746;2023-04-28T23:27:26;12.30;97.20
16178;DHT22;8195;51.220;9.746;2023-04-28T23:37:49;12.30;97.20
16178;DHT22;8195;51.220;9.746;2023-04-28T23:48:13;12.30;97.20
16178;DHT22;8195;51.220;9.746;2023-04-28T23:58:34;12.30;97.20
